sensor_id;sensor_type;location;lat;lon;timestamp;temperature;humidity
76789;DHT22;65740;52.464;13.446;2023-04-24T00:02:13;20.90;48.20
76789;DHT22;65740;52.464;13.446;2023-04-24T00:04:41;20.90;48.20
76789;DHT22;65740;52.464;13.446;2023-04-24T00:07:07;20.90;48.00
76789;DHT22;65740;52.464;13.446;2023-04-24T00:09:33;20.90;48.20
76789;DHT22;65740;52.464;13.446;2023-04-24T00:11:59;20.90;48.00
76789;DHT22;65740;52.464;13.446;2023-04-24T00:14:25;20.90;47.90
76789;DHT22;65740;52.464;13.446;2023-04-24T00:16:50;20.80;48.00
76789;DHT22;65740;52.464;13.446;2023-04-24T00:19:17;20.80;48.10
76789;DHT22;65740;52.464;13.446;2023-04-24T00:21:42;20.80;48.00
76789;DHT22;65740;52.464;13.446;2023-04-24T00:24:08;20.80;48.00
76789;DHT22;65740;52.464;13.446;2023-04-24T00:26:34;20.80;48.10
76789;DHT22;65740;52.464;13.446;2023-04-24T00:29:00;20.70;47.80
76789;DHT22;65740;52.464;13.446;2023-04-24T00:31:25;20.70;48.00
76789;DHT22;65740;52.464;13.446;2023-04-24T00:33:51;20.70;47.80
76789;DHT22;65740;52.464;13.446;2023-04-24T00:36:17;20.70;47.90
76789;DHT22;65740;52.464;13.446;2023-04-24T00:38:44;20.70;47.70
76789;DHT22;65740;52.464;13.446;2023-04-24T00:41:10;20.70;48.40
76789;DHT22;65740;52.464;13.446;2023-04-24T00:43:36;20.70;47.80
76789;DHT22;65740;52.464;13.446;2023-04-24T00:46:02;20.70;47.70
76789;DHT22;65740;52.464;13.446;2023-04-24T00:48:27;20.70;47.70
76789;DHT22;65740;52.464;13.446;2023-04-24T00:50:53;20.70;47.60
76789;DHT22;65740;52.464;13.446;2023-04-24T00:53:19;20.70;47.60
76789;DHT22;65740;52.464;13.446;2023-04-24T00:55:45;20.70;47.40
76789;DHT22;65740;52.464;13.446;2023-04-24T00:58:11;20.70;47.40
76789;DHT22;65740;52.464;13.446;2023-04-24T01:00:37;20.70;47.90
76789;DHT22;65740;52.464;13.446;2023-04-24T01:03:04;20.70;47.30
76789;DHT22;65740;52.464;13.446;2023-04-24T01:05:32;20.70;47.30
76789;DHT22;65740;52.464;13.446;2023-04-24T01:07:58;20.70;47.30
76789;DHT22;65740;52.464;13.446;2023-04-24T01:10:26;20.60;47.20
76789;DHT22;65740;52.464;13.446;2023-04-24T01:12:53;20.70;47.30
76789;DHT22;65740;52.464;13.446;2023-04-24T01:15:18;20.70;47.30
76789;DHT22;65740;52.464;13.446;2023-04-24T01:17:44;20.70;47.90
76789;DHT22;65740;52.464;13.446;2023-04-24T01:20:10;20.70;47.30
76789;DHT22;65740;52.464;13.446;2023-04-24T01:22:36;20.70;47.30
76789;DHT22;65740;52.464;13.446;2023-04-24T01:25:02;20.70;47.30
76789;DHT22;65740;52.464;13.446;2023-04-24T01:27:28;20.70;47.30
76789;DHT22;65740;52.464;13.446;2023-04-24T01:29:54;20.60;47.20
76789;DHT22;65740;52.464;13.446;2023-04-24T01:32:20;20.60;47.20
76789;DHT22;65740;52.464;13.446;2023-04-24T01:34:46;20.70;47.30
76789;DHT22;65740;52.464;13.446;2023-04-24T01:37:13;20.60;47.20
76789;DHT22;65740;52.464;13.446;2023-04-24T01:39:38;20.60;47.20
76789;DHT22;65740;52.464;13.446;2023-04-24T01:42:05;20.60;47.20
76789;DHT22;65740;52.464;13.446;2023-04-24T01:44:31;20.60;47.20
76789;DHT22;65740;52.464;13.446;2023-04-24T01:46:57;20.50;47.10
76789;DHT22;65740;52.464;13.446;2023-04-24T01:49:22;20.50;47.80
76789;DHT22;65740;52.464;13.446;2023-04-24T01:51:48;20.50;47.10
76789;DHT22;65740;52.464;13.446;2023-04-24T01:54:14;20.50;47.10
76789;DHT22;65740;52.464;13.446;2023-04-24T01:56:41;20.50;47.10
76789;DHT22;65740;52.464;13.446;2023-04-24T01:59:11;20.50;47.80
76789;DHT22;65740;52.464;13.446;2023-04-24T02:01:38;20.50;47.10
76789;DHT22;65740;52.464;13.446;2023-04-24T02:04:05;20.50;47.10
76789;DHT22;65740;52.464;13.446;2023-04-24T02:06:30;20.50;47.10
76789;DHT22;65740;52.464;13.446;2023-04-24T02:08:58;20.50;47.10
76789;DHT22;65740;52.464;13.446;2023-04-24T02:11:23;20.40;47.00
76789;DHT22;65740;52.464;13.446;2023-04-24T02:13:49;20.40;47.00
76789;DHT22;65740;52.464;13.446;2023-04-24T02:16:15;20.40;47.00
76789;DHT22;65740;52.464;13.446;2023-04-24T02:18:41;20.40;47.00
76789;DHT22;65740;52.464;13.446;2023-04-24T02:21:08;20.40;47.00
76789;DHT22;65740;52.464;13.446;2023-04-24T02:23:33;20.40;47.00
76789;DHT22;65740;52.464;13.446;2023-04-24T02:25:59;20.40;47.00
76789;DHT22;65740;52.464;13.446;2023-04-24T02:28:24;20.40;47.00
76789;DHT22;65740;52.464;13.446;2023-04-24T02:30:50;20.40;47.00
76789;DHT22;65740;52.464;13.446;2023-04-24T02:33:16;20.50;47.10
76789;DHT22;65740;52.464;13.446;2023-04-24T02:35:42;20.40;47.00
76789;DHT22;65740;52.464;13.446;2023-04-24T02:38:07;20.40;47.10
76789;DHT22;65740;52.464;13.446;2023-04-24T02:40:33;20.40;47.00
76789;DHT22;65740;52.464;13.446;2023-04-24T02:42:59;20.50;47.10
76789;DHT22;65740;52.464;13.446;2023-04-24T02:45:24;20.50;47.10
76789;DHT22;65740;52.464;13.446;2023-04-24T02:47:50;20.40;47.00
76789;DHT22;65740;52.464;13.446;2023-04-24T02:50:15;20.40;47.00
76789;DHT22;65740;52.464;13.446;2023-04-24T02:52:41;20.40;47.00
76789;DHT22;65740;52.464;13.446;2023-04-24T02:55:07;20.50;47.10
76789;DHT22;65740;52.464;13.446;2023-04-24T02:57:33;20.50;47.10
76789;DHT22;65740;52.464;13.446;2023-04-24T02:59:59;20.40;46.90
76789;DHT22;65740;52.464;13.446;2023-04-24T03:02:25;20.40;47.00
76789;DHT22;65740;52.464;13.446;2023-04-24T03:04:51;20.40;47.00
76789;DHT22;65740;52.464;13.446;2023-04-24T03:07:16;20.40;47.00
76789;DHT22;65740;52.464;13.446;2023-04-24T03:09:42;20.40;46.80
76789;DHT22;65740;52.464;13.446;2023-04-24T03:12:08;20.40;47.50
76789;DHT22;65740;52.464;13.446;2023-04-24T03:14:33;20.30;46.80
76789;DHT22;65740;52.464;13.446;2023-04-24T03:17:00;20.40;46.80
76789;DHT22;65740;52.464;13.446;2023-04-24T03:19:25;20.30;46.90
76789;DHT22;65740;52.464;13.446;2023-04-24T03:21:51;20.30;46.90
76789;DHT22;65740;52.464;13.446;2023-04-24T03:24:17;20.30;46.80
76789;DHT22;65740;52.464;13.446;2023-04-24T03:26:42;20.30;46.90
76789;DHT22;65740;52.464;13.446;2023-04-24T03:29:08;20.30;46.90
76789;DHT22;65740;52.464;13.446;2023-04-24T03:31:33;20.30;46.90
76789;DHT22;65740;52.464;13.446;2023-04-24T03:33:59;20.30;46.90
76789;DHT22;65740;52.464;13.446;2023-04-24T03:36:25;20.30;46.90
76789;DHT22;65740;52.464;13.446;2023-04-24T03:38:51;20.30;46.90
76789;DHT22;65740;52.464;13.446;2023-04-24T03:41:17;20.20;46.80
76789;DHT22;65740;52.464;13.446;2023-04-24T03:43:42;20.30;46.90
76789;DHT22;65740;52.464;13.446;2023-04-24T03:46:08;20.20;46.80
76789;DHT22;65740;52.464;13.446;2023-04-24T03:48:35;20.30;47.00
76789;DHT22;65740;52.464;13.446;2023-04-24T03:51:00;20.20;46.90
76789;DHT22;65740;52.464;13.446;2023-04-24T03:53:26;20.20;46.80
76789;DHT22;65740;52.464;13.446;2023-04-24T03:55:52;20.20;46.80
76789;DHT22;65740;52.464;13.446;2023-04-24T03:58:18;20.20;46.80
76789;DHT22;65740;52.464;13.446;2023-04-24T04:00:44;20.20;46.80
76789;DHT22;65740;52.464;13.446;2023-04-24T04:03:11;20.20;46.70
76789;DHT22;65740;52.464;13.446;2023-04-24T04:05:39;20.30;46.70
76789;DHT22;65740;52.464;13.446;2023-04-24T04:08:04;20.30;46.60
76789;DHT22;65740;52.464;13.446;2023-04-24T04:10:30;20.30;46.60
76789;DHT22;65740;52.464;13.446;2023-04-24T04:12:56;20.20;46.40
76789;DHT22;65740;52.464;13.446;2023-04-24T04:15:22;20.20;46.30
76789;DHT22;65740;52.464;13.446;2023-04-24T04:17:47;20.30;46.60
76789;DHT22;65740;52.464;13.446;2023-04-24T04:20:13;20.30;46.50
76789;DHT22;65740;52.464;13.446;2023-04-24T04:22:39;20.30;46.40
76789;DHT22;65740;52.464;13.446;2023-04-24T04:25:05;20.30;46.40
76789;DHT22;65740;52.464;13.446;2023-04-24T04:27:31;20.30;46.40
76789;DHT22;65740;52.464;13.446;2023-04-24T04:30:01;20.30;46.30
76789;DHT22;65740;52.464;13.446;2023-04-24T04:32:33;20.20;46.20
76789;DHT22;65740;52.464;13.446;2023-04-24T04:35:00;20.20;46.30
76789;DHT22;65740;52.464;13.446;2023-04-24T04:37:29;20.30;46.30
76789;DHT22;65740;52.464;13.446;2023-04-24T04:39:55;20.20;46.20
76789;DHT22;65740;52.464;13.446;2023-04-24T04:42:21;20.30;46.40
76789;DHT22;65740;52.464;13.446;2023-04-24T04:44:47;20.20;46.30
76789;DHT22;65740;52.464;13.446;2023-04-24T04:47:12;20.20;46.30
76789;DHT22;65740;52.464;13.446;2023-04-24T04:49:38;20.20;46.40
76789;DHT22;65740;52.464;13.446;2023-04-24T04:52:04;20.20;46.40
76789;DHT22;65740;52.464;13.446;2023-04-24T04:54:30;20.20;46.40
76789;DHT22;65740;52.464;13.446;2023-04-24T04:56:56;20.10;46.30
76789;DHT22;65740;52.464;13.446;2023-04-24T04:59:22;20.20;46.40
76789;DHT22;65740;52.464;13.446;2023-04-24T05:01:48;20.20;46.50
76789;DHT22;65740;52.464;13.446;2023-04-24T05:04:13;20.10;46.40
76789;DHT22;65740;52.464;13.446;2023-04-24T05:06:39;20.10;46.40
76789;DHT22;65740;52.464;13.446;2023-04-24T05:09:05;20.10;46.40
76789;DHT22;65740;52.464;13.446;2023-04-24T05:11:32;20.10;46.40
76789;DHT22;65740;52.464;13.446;2023-04-24T05:13:58;20.10;46.40
76789;DHT22;65740;52.464;13.446;2023-04-24T05:16:23;20.10;46.50
76789;DHT22;65740;52.464;13.446;2023-04-24T05:18:49;20.10;46.60
76789;DHT22;65740;52.464;13.446;2023-04-24T05:21:15;20.10;46.50
76789;DHT22;65740;52.464;13.446;2023-04-24T05:23:40;20.10;46.40
76789;DHT22;65740;52.464;13.446;2023-04-24T05:26:06;20.10;46.40
76789;DHT22;65740;52.464;13.446;2023-04-24T05:28:32;20.10;46.50
76789;DHT22;65740;52.464;13.446;2023-04-24T05:30:57;20.10;46.50
76789;DHT22;65740;52.464;13.446;2023-04-24T05:33:24;20.10;46.30
76789;DHT22;65740;52.464;13.446;2023-04-24T05:35:50;20.10;46.30
76789;DHT22;65740;52.464;13.446;2023-04-24T05:38:16;20.10;46.40
76789;DHT22;65740;52.464;13.446;2023-04-24T05:40:45;20.10;46.30
76789;DHT22;65740;52.464;13.446;2023-04-24T05:43:11;20.10;46.20
76789;DHT22;65740;52.464;13.446;2023-04-24T05:45:38;20.10;46.20
76789;DHT22;65740;52.464;13.446;2023-04-24T05:48:03;20.10;46.80
76789;DHT22;65740;52.464;13.446;2023-04-24T05:50:29;20.20;46.90
76789;DHT22;65740;52.464;13.446;2023-04-24T05:52:55;20.10;46.20
76789;DHT22;65740;52.464;13.446;2023-04-24T05:55:23;20.20;46.20
76789;DHT22;65740;52.464;13.446;2023-04-24T05:57:49;20.20;46.20
76789;DHT22;65740;52.464;13.446;2023-04-24T06:00:15;20.20;46.20
76789;DHT22;65740;52.464;13.446;2023-04-24T06:02:41;20.20;46.20
76789;DHT22;65740;52.464;13.446;2023-04-24T06:05:07;20.20;46.20
76789;DHT22;65740;52.464;13.446;2023-04-24T06:07:33;20.20;46.20
76789;DHT22;65740;52.464;13.446;2023-04-24T06:09:59;20.20;46.20
76789;DHT22;65740;52.464;13.446;2023-04-24T06:12:25;20.20;46.20
76789;DHT22;65740;52.464;13.446;2023-04-24T06:14:51;20.20;46.20
76789;DHT22;65740;52.464;13.446;2023-04-24T06:17:16;20.20;46.20
76789;DHT22;65740;52.464;13.446;2023-04-24T06:19:43;20.20;46.30
76789;DHT22;65740;52.464;13.446;2023-04-24T06:22:09;20.20;46.30
76789;DHT22;65740;52.464;13.446;2023-04-24T06:24:35;20.20;46.30
76789;DHT22;65740;52.464;13.446;2023-04-24T06:27:00;20.10;46.30
76789;DHT22;65740;52.464;13.446;2023-04-24T06:29:27;20.10;46.40
76789;DHT22;65740;52.464;13.446;2023-04-24T06:31:52;20.10;46.40
76789;DHT22;65740;52.464;13.446;2023-04-24T06:34:18;20.10;46.50
76789;DHT22;65740;52.464;13.446;2023-04-24T06:36:46;20.10;46.60
76789;DHT22;65740;52.464;13.446;2023-04-24T06:39:12;20.10;47.20
76789;DHT22;65740;52.464;13.446;2023-04-24T06:41:38;20.10;46.60
76789;DHT22;65740;52.464;13.446;2023-04-24T06:44:05;20.10;46.60
76789;DHT22;65740;52.464;13.446;2023-04-24T06:46:31;20.10;46.70
76789;DHT22;65740;52.464;13.446;2023-04-24T06:48:56;20.10;46.70
76789;DHT22;65740;52.464;13.446;2023-04-24T06:51:26;20.10;47.40
76789;DHT22;65740;52.464;13.446;2023-04-24T06:53:53;20.10;46.70
76789;DHT22;65740;52.464;13.446;2023-04-24T06:56:19;20.10;46.50
76789;DHT22;65740;52.464;13.446;2023-04-24T06:58:45;20.10;47.20
76789;DHT22;65740;52.464;13.446;2023-04-24T07:01:11;20.10;46.40
76789;DHT22;65740;52.464;13.446;2023-04-24T07:03:37;20.20;46.60
76789;DHT22;65740;52.464;13.446;2023-04-24T07:06:04;20.20;46.40
76789;DHT22;65740;52.464;13.446;2023-04-24T07:08:29;20.20;46.40
76789;DHT22;65740;52.464;13.446;2023-04-24T07:10:58;20.20;46.40
76789;DHT22;65740;52.464;13.446;2023-04-24T07:13:25;20.20;46.40
76789;DHT22;65740;52.464;13.446;2023-04-24T07:15:50;20.20;46.40
76789;DHT22;65740;52.464;13.446;2023-04-24T07:18:18;20.30;46.50
76789;DHT22;65740;52.464;13.446;2023-04-24T07:20:43;20.20;47.10
76789;DHT22;65740;52.464;13.446;2023-04-24T07:23:09;20.20;46.40
76789;DHT22;65740;52.464;13.446;2023-04-24T07:25:35;20.20;46.40
76789;DHT22;65740;52.464;13.446;2023-04-24T07:28:01;20.30;46.50
76789;DHT22;65740;52.464;13.446;2023-04-24T07:30:26;20.30;46.50
76789;DHT22;65740;52.464;13.446;2023-04-24T07:32:54;20.30;46.60
76789;DHT22;65740;52.464;13.446;2023-04-24T07:35:21;20.30;46.70
76789;DHT22;65740;52.464;13.446;2023-04-24T07:37:46;20.30;46.70
76789;DHT22;65740;52.464;13.446;2023-04-24T07:40:15;20.30;46.80
76789;DHT22;65740;52.464;13.446;2023-04-24T07:42:41;20.30;46.90
76789;DHT22;65740;52.464;13.446;2023-04-24T07:45:07;20.30;47.60
76789;DHT22;65740;52.464;13.446;2023-04-24T07:47:33;20.30;46.90
76789;DHT22;65740;52.464;13.446;2023-04-24T07:49:59;20.30;46.90
76789;DHT22;65740;52.464;13.446;2023-04-24T07:52:25;20.30;46.90
76789;DHT22;65740;52.464;13.446;2023-04-24T07:54:50;20.30;46.90
76789;DHT22;65740;52.464;13.446;2023-04-24T07:57:18;20.30;46.90
76789;DHT22;65740;52.464;13.446;2023-04-24T07:59:43;20.30;46.90
76789;DHT22;65740;52.464;13.446;2023-04-24T08:02:09;20.30;46.90
76789;DHT22;65740;52.464;13.446;2023-04-24T08:04:35;20.30;46.90
76789;DHT22;65740;52.464;13.446;2023-04-24T08:07:00;20.40;47.00
76789;DHT22;65740;52.464;13.446;2023-04-24T08:09:26;20.40;47.00
76789;DHT22;65740;52.464;13.446;2023-04-24T08:11:52;20.40;47.00
76789;DHT22;65740;52.464;13.446;2023-04-24T08:14:18;20.40;47.00
76789;DHT22;65740;52.464;13.446;2023-04-24T08:16:44;20.40;47.00
76789;DHT22;65740;52.464;13.446;2023-04-24T08:19:10;20.40;47.00
76789;DHT22;65740;52.464;13.446;2023-04-24T08:21:35;20.40;47.10
76789;DHT22;65740;52.464;13.446;2023-04-24T08:24:01;20.40;47.00
76789;DHT22;65740;52.464;13.446;2023-04-24T08:26:30;20.40;47.00
76789;DHT22;65740;52.464;13.446;2023-04-24T08:28:56;20.40;47.10
76789;DHT22;65740;52.464;13.446;2023-04-24T08:31:21;20.50;47.10
76789;DHT22;65740;52.464;13.446;2023-04-24T08:33:48;20.50;47.10
76789;DHT22;65740;52.464;13.446;2023-04-24T08:36:13;20.50;47.10
76789;DHT22;65740;52.464;13.446;2023-04-24T08:38:39;20.50;47.10
76789;DHT22;65740;52.464;13.446;2023-04-24T08:41:05;20.60;47.20
76789;DHT22;65740;52.464;13.446;2023-04-24T08:43:33;20.60;47.20
76789;DHT22;65740;52.464;13.446;2023-04-24T08:46:03;20.60;47.20
76789;DHT22;65740;52.464;13.446;2023-04-24T08:48:29;20.60;47.20
76789;DHT22;65740;52.464;13.446;2023-04-24T08:50:56;20.60;49.70
76789;DHT22;65740;52.464;13.446;2023-04-24T08:53:24;20.60;47.20
76789;DHT22;65740;52.464;13.446;2023-04-24T08:55:51;20.70;47.30
76789;DHT22;65740;52.464;13.446;2023-04-24T08:58:17;20.70;47.30
76789;DHT22;65740;52.464;13.446;2023-04-24T09:00:43;20.70;48.20
76789;DHT22;65740;52.464;13.446;2023-04-24T09:03:13;20.70;48.70
76789;DHT22;65740;52.464;13.446;2023-04-24T09:05:42;20.70;48.60
76789;DHT22;65740;52.464;13.446;2023-04-24T09:08:13;20.70;49.00
76789;DHT22;65740;52.464;13.446;2023-04-24T09:10:39;20.70;47.90
76789;DHT22;65740;52.464;13.446;2023-04-24T09:13:05;20.70;48.40
76789;DHT22;65740;52.464;13.446;2023-04-24T09:15:31;20.70;48.10
76789;DHT22;65740;52.464;13.446;2023-04-24T09:17:57;20.70;48.70
76789;DHT22;65740;52.464;13.446;2023-04-24T09:20:23;20.80;48.70
76789;DHT22;65740;52.464;13.446;2023-04-24T09:22:54;20.80;48.30
76789;DHT22;65740;52.464;13.446;2023-04-24T09:25:20;20.80;48.50
76789;DHT22;65740;52.464;13.446;2023-04-24T09:27:46;20.80;48.40
76789;DHT22;65740;52.464;13.446;2023-04-24T09:30:13;20.80;48.70
76789;DHT22;65740;52.464;13.446;2023-04-24T09:32:39;20.80;48.60
76789;DHT22;65740;52.464;13.446;2023-04-24T09:35:15;20.80;48.70
76789;DHT22;65740;52.464;13.446;2023-04-24T09:37:46;20.80;48.90
76789;DHT22;65740;52.464;13.446;2023-04-24T09:40:19;20.90;48.30
76789;DHT22;65740;52.464;13.446;2023-04-24T09:42:51;20.90;49.10
76789;DHT22;65740;52.464;13.446;2023-04-24T09:45:17;20.90;48.70
76789;DHT22;65740;52.464;13.446;2023-04-24T09:47:43;20.90;49.00
76789;DHT22;65740;52.464;13.446;2023-04-24T09:50:13;20.90;49.10
76789;DHT22;65740;52.464;13.446;2023-04-24T09:52:46;21.00;49.10
76789;DHT22;65740;52.464;13.446;2023-04-24T09:55:15;21.00;49.40
76789;DHT22;65740;52.464;13.446;2023-04-24T09:57:52;21.00;49.10
76789;DHT22;65740;52.464;13.446;2023-04-24T10:00:29;21.00;49.10
76789;DHT22;65740;52.464;13.446;2023-04-24T10:03:02;21.10;49.10
76789;DHT22;65740;52.464;13.446;2023-04-24T10:05:32;21.10;49.10
76789;DHT22;65740;52.464;13.446;2023-04-24T10:08:04;21.10;48.70
76789;DHT22;65740;52.464;13.446;2023-04-24T10:10:31;21.20;49.10
76789;DHT22;65740;52.464;13.446;2023-04-24T10:12:57;21.20;49.70
76789;DHT22;65740;52.464;13.446;2023-04-24T10:15:24;21.20;48.80
76789;DHT22;65740;52.464;13.446;2023-04-24T10:17:51;21.30;49.00
76789;DHT22;65740;52.464;13.446;2023-04-24T10:20:22;21.30;48.80
76789;DHT22;65740;52.464;13.446;2023-04-24T10:22:49;21.30;49.10
76789;DHT22;65740;52.464;13.446;2023-04-24T10:25:17;21.30;49.10
76789;DHT22;65740;52.464;13.446;2023-04-24T10:27:45;21.30;49.30
76789;DHT22;65740;52.464;13.446;2023-04-24T10:30:12;21.40;49.10
76789;DHT22;65740;52.464;13.446;2023-04-24T10:32:38;21.40;49.40
76789;DHT22;65740;52.464;13.446;2023-04-24T10:35:05;21.40;49.20
76789;DHT22;65740;52.464;13.446;2023-04-24T10:37:39;21.40;49.50
76789;DHT22;65740;52.464;13.446;2023-04-24T10:40:07;21.40;49.40
76789;DHT22;65740;52.464;13.446;2023-04-24T10:42:34;21.40;49.30
76789;DHT22;65740;52.464;13.446;2023-04-24T10:45:05;21.40;49.60
76789;DHT22;65740;52.464;13.446;2023-04-24T10:47:40;21.40;49.40
76789;DHT22;65740;52.464;13.446;2023-04-24T10:50:15;21.40;49.60
76789;DHT22;65740;52.464;13.446;2023-04-24T10:52:48;21.40;49.70
76789;DHT22;65740;52.464;13.446;2023-04-24T10:55:16;21.40;49.90
76789;DHT22;65740;52.464;13.446;2023-04-24T10:58:04;21.40;49.60
76789;DHT22;65740;52.464;13.446;2023-04-24T11:00:29;21.40;49.90
76789;DHT22;65740;52.464;13.446;2023-04-24T11:02:55;21.40;50.00
76789;DHT22;65740;52.464;13.446;2023-04-24T11:05:22;21.40;50.30
76789;DHT22;65740;52.464;13.446;2023-04-24T11:08:10;21.40;50.30
76789;DHT22;65740;52.464;13.446;2023-04-24T11:10:43;21.50;50.60
76789;DHT22;65740;52.464;13.446;2023-04-24T11:13:10;21.50;50.50
76789;DHT22;65740;52.464;13.446;2023-04-24T11:15:35;21.50;50.40
76789;DHT22;65740;52.464;13.446;2023-04-24T11:18:01;21.50;50.30
76789;DHT22;65740;52.464;13.446;2023-04-24T11:20:27;21.60;50.20
76789;DHT22;65740;52.464;13.446;2023-04-24T11:22:53;21.60;50.10
76789;DHT22;65740;52.464;13.446;2023-04-24T11:25:23;21.60;50.10
76789;DHT22;65740;52.464;13.446;2023-04-24T11:27:50;21.50;50.10
76789;DHT22;65740;52.464;13.446;2023-04-24T11:30:29;21.60;50.10
76789;DHT22;65740;52.464;13.446;2023-04-24T11:33:02;21.60;50.10
76789;DHT22;65740;52.464;13.446;2023-04-24T11:35:28;21.60;50.20
76789;DHT22;65740;52.464;13.446;2023-04-24T11:37:55;21.60;50.20
76789;DHT22;65740;52.464;13.446;2023-04-24T11:40:22;21.60;50.30
76789;DHT22;65740;52.464;13.446;2023-04-24T11:42:50;21.60;50.70
76789;DHT22;65740;52.464;13.446;2023-04-24T11:45:34;21.60;50.70
76789;DHT22;65740;52.464;13.446;2023-04-24T11:48:00;21.70;50.90
76789;DHT22;65740;52.464;13.446;2023-04-24T11:50:26;21.70;51.10
76789;DHT22;65740;52.464;13.446;2023-04-24T11:52:53;21.70;51.10
76789;DHT22;65740;52.464;13.446;2023-04-24T11:57:55;21.80;51.20
76789;DHT22;65740;52.464;13.446;2023-04-24T12:00:24;21.80;51.30
76789;DHT22;65740;52.464;13.446;2023-04-24T12:02:50;21.80;51.40
76789;DHT22;65740;52.464;13.446;2023-04-24T12:05:23;21.80;51.40
76789;DHT22;65740;52.464;13.446;2023-04-24T12:07:49;21.90;51.20
76789;DHT22;65740;52.464;13.446;2023-04-24T12:10:26;21.90;51.20
76789;DHT22;65740;52.464;13.446;2023-04-24T12:12:53;21.90;51.80
76789;DHT22;65740;52.464;13.446;2023-04-24T12:15:19;21.90;51.40
76789;DHT22;65740;52.464;13.446;2023-04-24T12:17:46;21.90;51.50
76789;DHT22;65740;52.464;13.446;2023-04-24T12:20:12;22.00;51.60
76789;DHT22;65740;52.464;13.446;2023-04-24T12:22:53;22.00;51.50
76789;DHT22;65740;52.464;13.446;2023-04-24T12:25:32;22.00;51.60
76789;DHT22;65740;52.464;13.446;2023-04-24T12:30:31;22.00;51.50
76789;DHT22;65740;52.464;13.446;2023-04-24T12:32:58;22.00;51.60
76789;DHT22;65740;52.464;13.446;2023-04-24T12:35:26;22.10;51.80
76789;DHT22;65740;52.464;13.446;2023-04-24T12:37:52;22.10;51.90
76789;DHT22;65740;52.464;13.446;2023-04-24T12:40:19;22.10;52.00
76789;DHT22;65740;52.464;13.446;2023-04-24T12:42:47;22.00;52.10
76789;DHT22;65740;52.464;13.446;2023-04-24T12:45:15;22.00;52.40
76789;DHT22;65740;52.464;13.446;2023-04-24T12:47:42;22.00;52.40
76789;DHT22;65740;52.464;13.446;2023-04-24T12:50:09;22.00;52.30
76789;DHT22;65740;52.464;13.446;2023-04-24T12:52:36;22.00;52.80
76789;DHT22;65740;52.464;13.446;2023-04-24T12:55:02;22.00;52.50
76789;DHT22;65740;52.464;13.446;2023-04-24T12:57:30;22.00;52.80
76789;DHT22;65740;52.464;13.446;2023-04-24T12:59:57;22.00;52.60
76789;DHT22;65740;52.464;13.446;2023-04-24T13:02:24;22.00;52.60
76789;DHT22;65740;52.464;13.446;2023-04-24T13:04:50;22.10;52.70
76789;DHT22;65740;52.464;13.446;2023-04-24T13:07:16;22.10;52.70
76789;DHT22;65740;52.464;13.446;2023-04-24T13:09:43;22.10;52.70
76789;DHT22;65740;52.464;13.446;2023-04-24T13:12:10;22.20;52.90
76789;DHT22;65740;52.464;13.446;2023-04-24T13:14:36;22.10;52.50
76789;DHT22;65740;52.464;13.446;2023-04-24T13:17:02;22.10;52.50
76789;DHT22;65740;52.464;13.446;2023-04-24T13:19:28;22.10;52.40
76789;DHT22;65740;52.464;13.446;2023-04-24T13:21:55;22.20;52.10
76789;DHT22;65740;52.464;13.446;2023-04-24T13:24:25;22.20;52.00
76789;DHT22;65740;52.464;13.446;2023-04-24T13:26:52;22.20;52.10
76789;DHT22;65740;52.464;13.446;2023-04-24T13:29:17;22.20;51.90
76789;DHT22;65740;52.464;13.446;2023-04-24T13:31:43;22.20;52.10
76789;DHT22;65740;52.464;13.446;2023-04-24T13:34:09;22.30;52.30
76789;DHT22;65740;52.464;13.446;2023-04-24T13:36:35;22.30;52.10
76789;DHT22;65740;52.464;13.446;2023-04-24T13:39:02;22.30;51.80
76789;DHT22;65740;52.464;13.446;2023-04-24T13:41:29;22.30;51.90
76789;DHT22;65740;52.464;13.446;2023-04-24T13:43:55;22.40;52.00
76789;DHT22;65740;52.464;13.446;2023-04-24T13:46:21;22.40;52.30
76789;DHT22;65740;52.464;13.446;2023-04-24T13:48:47;22.40;52.20
76789;DHT22;65740;52.464;13.446;2023-04-24T13:51:12;22.50;52.30
76789;DHT22;65740;52.464;13.446;2023-04-24T13:53:38;22.40;52.10
76789;DHT22;65740;52.464;13.446;2023-04-24T13:56:04;22.50;52.10
76789;DHT22;65740;52.464;13.446;2023-04-24T13:58:31;22.50;52.50
76789;DHT22;65740;52.464;13.446;2023-04-24T14:00:58;22.50;52.00
76789;DHT22;65740;52.464;13.446;2023-04-24T14:03:23;22.60;52.20
76789;DHT22;65740;52.464;13.446;2023-04-24T14:05:49;22.60;51.90
76789;DHT22;65740;52.464;13.446;2023-04-24T14:08:15;22.60;52.20
76789;DHT22;65740;52.464;13.446;2023-04-24T14:10:40;22.60;52.10
76789;DHT22;65740;52.464;13.446;2023-04-24T14:13:08;22.70;51.90
76789;DHT22;65740;52.464;13.446;2023-04-24T14:15:35;22.70;52.10
76789;DHT22;65740;52.464;13.446;2023-04-24T14:18:01;22.70;52.10
76789;DHT22;65740;52.464;13.446;2023-04-24T14:20:26;22.70;52.20
76789;DHT22;65740;52.464;13.446;2023-04-24T14:22:52;22.70;52.20
76789;DHT22;65740;52.464;13.446;2023-04-24T14:25:18;22.80;52.30
76789;DHT22;65740;52.464;13.446;2023-04-24T14:27:44;22.80;52.40
76789;DHT22;65740;52.464;13.446;2023-04-24T14:30:12;22.80;52.40
76789;DHT22;65740;52.464;13.446;2023-04-24T14:32:38;22.80;52.70
76789;DHT22;65740;52.464;13.446;2023-04-24T14:35:05;22.90;52.50
76789;DHT22;65740;52.464;13.446;2023-04-24T14:37:32;22.90;52.20
76789;DHT22;65740;52.464;13.446;2023-04-24T14:39:57;22.80;52.20
76789;DHT22;65740;52.464;13.446;2023-04-24T14:42:23;22.80;52.00
76789;DHT22;65740;52.464;13.446;2023-04-24T14:44:49;22.90;51.90
76789;DHT22;65740;52.464;13.446;2023-04-24T14:47:14;22.90;52.20
76789;DHT22;65740;52.464;13.446;2023-04-24T14:49:43;22.90;52.30
76789;DHT22;65740;52.464;13.446;2023-04-24T14:52:10;22.90;52.50
76789;DHT22;65740;52.464;13.446;2023-04-24T14:54:35;22.90;52.40
76789;DHT22;65740;52.464;13.446;2023-04-24T14:57:01;22.90;52.40
76789;DHT22;65740;52.464;13.446;2023-04-24T14:59:28;22.90;52.30
76789;DHT22;65740;52.464;13.446;2023-04-24T15:01:54;22.90;52.10
76789;DHT22;65740;52.464;13.446;2023-04-24T15:04:24;22.90;52.10
76789;DHT22;65740;52.464;13.446;2023-04-24T15:06:51;22.90;52.20
76789;DHT22;65740;52.464;13.446;2023-04-24T15:09:19;22.90;52.50
76789;DHT22;65740;52.464;13.446;2023-04-24T15:11:45;22.90;52.80
76789;DHT22;65740;52.464;13.446;2023-04-24T15:14:10;22.90;52.60
76789;DHT22;65740;52.464;13.446;2023-04-24T15:16:36;22.90;52.80
76789;DHT22;65740;52.464;13.446;2023-04-24T15:19:02;22.90;52.50